sensor_id;sensor_type;location;lat;lon;timestamp;temperature;humidity
21627;DHT22;10975;47.872;12.972;2024-03-17T00:00:24;9.80;99.90
21627;DHT22;10975;47.872;12.972;2024-03-17T00:02:50;9.80;99.90
21627;DHT22;10975;47.872;12.972;2024-03-17T00:05:16;9.70;99.90
21627;DHT22;10975;47.872;12.972;2024-03-17T00:07:44;9.70;99.90
21627;DHT22;10975;47.872;12.972;2024-03-17T00:10:10;9.70;99.90
21627;DHT22;10975;47.872;12.972;2024-03-17T00:12:37;9.70;99.90
21627;DHT22;10975;47.872;12.972;2024-03-17T00:15:04;9.70;99.90
21627;DHT22;10975;47.872;12.972;2024-03-17T00:17:30;9.70;99.90
21627;DHT22;10975;47.872;12.972;2024-03-17T00:19:56;9.70;99.90
21627;DHT22;10975;47.872;12.972;2024-03-17T00:22:22;9.60;99.90
21627;DHT22;10975;47.872;12.972;2024-03-17T00:24:48;9.70;99.90
21627;DHT22;10975;47.872;12.972;2024-03-17T00:27:14;9.70;99.90
21627;DHT22;10975;47.872;12.972;2024-03-17T00:29:39;9.70;99.90
21627;DHT22;10975;47.872;12.972;2024-03-17T00:32:06;9.70;99.90
21627;DHT22;10975;47.872;12.972;2024-03-17T00:34:32;9.70;99.90
21627;DHT22;10975;47.872;12.972;2024-03-17T00:36:58;9.70;99.90
21627;DHT22;10975;47.872;12.972;2024-03-17T00:39:28;9.60;99.90
21627;DHT22;10975;47.872;12.972;2024-03-17T00:41:54;9.60;99.90
21627;DHT22;10975;47.872;12.972;2024-03-17T00:44:20;9.60;99.90
21627;DHT22;10975;47.872;12.972;2024-03-17T00:46:45;9.60;99.90
21627;DHT22;10975;47.872;12.972;2024-03-17T00:49:12;9.60;99.90
21627;DHT22;10975;47.872;12.972;2024-03-17T00:51:38;9.60;99.90
21627;DHT22;10975;47.872;12.972;2024-03-17T00:54:04;9.60;99.90
21627;DHT22;10975;47.872;12.972;2024-03-17T00:56:30;9.60;99.90
21627;DHT22;10975;47.872;12.972;2024-03-17T00:58:56;9.60;99.90
21627;DHT22;10975;47.872;12.972;2024-03-17T01:01:22;9.60;99.90
21627;DHT22;10975;47.872;12.972;2024-03-17T01:03:49;9.60;99.90
21627;DHT22;10975;47.872;12.972;2024-03-17T01:06:15;9.50;99.90
21627;DHT22;10975;47.872;12.972;2024-03-17T01:08:40;9.60;99.90
21627;DHT22;10975;47.872;12.972;2024-03-17T01:11:06;9.50;99.90
21627;DHT22;10975;47.872;12.972;2024-03-17T01:13:35;9.60;99.90
21627;DHT22;10975;47.872;12.972;2024-03-17T01:16:03;9.60;99.90
21627;DHT22;10975;47.872;12.972;2024-03-17T01:18:29;9.60;99.90
21627;DHT22;10975;47.872;12.972;2024-03-17T01:20:55;9.60;99.90
21627;DHT22;10975;47.872;12.972;2024-03-17T01:23:21;9.50;99.90
21627;DHT22;10975;47.872;12.972;2024-03-17T01:25:47;9.50;99.90
21627;DHT22;10975;47.872;12.972;2024-03-17T01:28:13;9.50;99.90
21627;DHT22;10975;47.872;12.972;2024-03-17T01:30:39;9.50;99.90
21627;DHT22;10975;47.872;12.972;2024-03-17T01:33:06;9.50;99.90
21627;DHT22;10975;47.872;12.972;2024-03-17T01:35:32;9.50;99.90
21627;DHT22;10975;47.872;12.972;2024-03-17T01:37:58;9.50;99.90
21627;DHT22;10975;47.872;12.972;2024-03-17T01:40:23;9.40;99.90
21627;DHT22;10975;47.872;12.972;2024-03-17T01:42:49;9.40;99.90
21627;DHT22;10975;47.872;12.972;2024-03-17T01:45:31;9.40;99.90
21627;DHT22;10975;47.872;12.972;2024-03-17T01:47:58;9.40;99.90
21627;DHT22;10975;47.872;12.972;2024-03-17T01:50:26;9.40;99.90
21627;DHT22;10975;47.872;12.972;2024-03-17T01:52:56;9.30;99.90
21627;DHT22;10975;47.872;12.972;2024-03-17T01:55:22;9.40;99.90
21627;DHT22;10975;47.872;12.972;2024-03-17T01:57:50;9.40;99.90
21627;DHT22;10975;47.872;12.972;2024-03-17T02:00:19;9.40;99.90
21627;DHT22;10975;47.872;12.972;2024-03-17T02:02:45;9.40;99.90
21627;DHT22;10975;47.872;12.972;2024-03-17T02:05:11;9.40;99.90
21627;DHT22;10975;47.872;12.972;2024-03-17T02:07:36;9.40;99.90
21627;DHT22;10975;47.872;12.972;2024-03-17T02:10:03;9.30;99.90
21627;DHT22;10975;47.872;12.972;2024-03-17T02:12:30;9.30;99.90
21627;DHT22;10975;47.872;12.972;2024-03-17T02:15:00;9.30;99.90
21627;DHT22;10975;47.872;12.972;2024-03-17T02:17:26;9.20;99.90
21627;DHT22;10975;47.872;12.972;2024-03-17T02:19:54;9.30;99.90
21627;DHT22;10975;47.872;12.972;2024-03-17T02:22:20;9.20;99.90
21627;DHT22;10975;47.872;12.972;2024-03-17T02:24:46;9.20;99.90
21627;DHT22;10975;47.872;12.972;2024-03-17T02:27:12;9.20;99.90
21627;DHT22;10975;47.872;12.972;2024-03-17T02:29:38;9.20;99.90
21627;DHT22;10975;47.872;12.972;2024-03-17T02:32:08;9.20;99.90
21627;DHT22;10975;47.872;12.972;2024-03-17T02:34:35;9.10;99.90
21627;DHT22;10975;47.872;12.972;2024-03-17T02:37:01;9.10;99.90
21627;DHT22;10975;47.872;12.972;2024-03-17T02:39:29;9.10;99.90
21627;DHT22;10975;47.872;12.972;2024-03-17T02:42:10;9.10;99.90
21627;DHT22;10975;47.872;12.972;2024-03-17T02:44:38;9.00;99.90
21627;DHT22;10975;47.872;12.972;2024-03-17T02:47:04;9.00;99.90
21627;DHT22;10975;47.872;12.972;2024-03-17T02:49:31;9.00;99.90
21627;DHT22;10975;47.872;12.972;2024-03-17T02:52:06;9.00;99.90
21627;DHT22;10975;47.872;12.972;2024-03-17T02:54:33;9.00;99.90
21627;DHT22;10975;47.872;12.972;2024-03-17T02:57:01;9.00;99.90
21627;DHT22;10975;47.872;12.972;2024-03-17T02:59:27;8.90;99.90
21627;DHT22;10975;47.872;12.972;2024-03-17T03:01:53;8.90;99.90
21627;DHT22;10975;47.872;12.972;2024-03-17T03:04:20;8.80;99.90
21627;DHT22;10975;47.872;12.972;2024-03-17T03:06:46;8.90;99.90
21627;DHT22;10975;47.872;12.972;2024-03-17T03:09:12;8.80;99.90
21627;DHT22;10975;47.872;12.972;2024-03-17T03:11:46;8.70;99.90
21627;DHT22;10975;47.872;12.972;2024-03-17T03:14:13;8.70;99.90
21627;DHT22;10975;47.872;12.972;2024-03-17T03:16:38;8.60;99.90
21627;DHT22;10975;47.872;12.972;2024-03-17T03:19:04;8.50;99.90
21627;DHT22;10975;47.872;12.972;2024-03-17T03:21:33;8.40;99.90
21627;DHT22;10975;47.872;12.972;2024-03-17T03:23:59;8.40;99.90
21627;DHT22;10975;47.872;12.972;2024-03-17T03:26:24;8.30;99.90
21627;DHT22;10975;47.872;12.972;2024-03-17T03:28:50;8.40;99.90
21627;DHT22;10975;47.872;12.972;2024-03-17T03:31:16;8.40;99.90
21627;DHT22;10975;47.872;12.972;2024-03-17T03:33:43;8.40;99.90
21627;DHT22;10975;47.872;12.972;2024-03-17T03:36:10;8.40;99.90
21627;DHT22;10975;47.872;12.972;2024-03-17T03:38:37;8.40;99.90
21627;DHT22;10975;47.872;12.972;2024-03-17T03:41:11;8.50;99.90
21627;DHT22;10975;47.872;12.972;2024-03-17T03:43:37;8.50;99.90
21627;DHT22;10975;47.872;12.972;2024-03-17T03:46:03;8.50;99.90
21627;DHT22;10975;47.872;12.972;2024-03-17T03:48:30;8.60;99.90
21627;DHT22;10975;47.872;12.972;2024-03-17T03:50:56;8.60;99.90
21627;DHT22;10975;47.872;12.972;2024-03-17T03:53:22;8.60;99.90
21627;DHT22;10975;47.872;12.972;2024-03-17T03:55:48;8.60;99.90
21627;DHT22;10975;47.872;12.972;2024-03-17T03:58:14;8.60;99.90
21627;DHT22;10975;47.872;12.972;2024-03-17T04:00:40;8.50;99.90
21627;DHT22;10975;47.872;12.972;2024-03-17T04:03:06;8.60;99.90
21627;DHT22;10975;47.872;12.972;2024-03-17T04:05:32;8.60;99.90
21627;DHT22;10975;47.872;12.972;2024-03-17T04:08:00;8.50;99.90
21627;DHT22;10975;47.872;12.972;2024-03-17T04:10:26;8.60;99.90
21627;DHT22;10975;47.872;12.972;2024-03-17T04:12:52;8.50;99.90
21627;DHT22;10975;47.872;12.972;2024-03-17T04:15:19;8.50;99.90
21627;DHT22;10975;47.872;12.972;2024-03-17T04:17:45;8.50;99.90
21627;DHT22;10975;47.872;12.972;2024-03-17T04:20:11;8.50;99.90
21627;DHT22;10975;47.872;12.972;2024-03-17T04:22:39;8.50;99.90
21627;DHT22;10975;47.872;12.972;2024-03-17T04:25:06;8.50;99.90
21627;DHT22;10975;47.872;12.972;2024-03-17T04:27:32;8.50;99.90
21627;DHT22;10975;47.872;12.972;2024-03-17T04:29:59;8.50;99.90
21627;DHT22;10975;47.872;12.972;2024-03-17T04:32:26;8.40;99.90
21627;DHT22;10975;47.872;12.972;2024-03-17T04:34:54;8.40;99.90
21627;DHT22;10975;47.872;12.972;2024-03-17T04:37:20;8.30;99.90
21627;DHT22;10975;47.872;12.972;2024-03-17T04:39:47;8.30;99.90
21627;DHT22;10975;47.872;12.972;2024-03-17T04:42:15;8.30;99.90
21627;DHT22;10975;47.872;12.972;2024-03-17T04:44:42;8.30;99.90
21627;DHT22;10975;47.872;12.972;2024-03-17T04:47:08;8.30;99.90
21627;DHT22;10975;47.872;12.972;2024-03-17T04:49:39;8.30;99.90
21627;DHT22;10975;47.872;12.972;2024-03-17T04:52:06;8.30;99.90
21627;DHT22;10975;47.872;12.972;2024-03-17T04:54:33;8.30;99.90
21627;DHT22;10975;47.872;12.972;2024-03-17T04:56:59;8.40;99.90
21627;DHT22;10975;47.872;12.972;2024-03-17T04:59:25;8.30;99.90
21627;DHT22;10975;47.872;12.972;2024-03-17T05:01:51;8.30;99.90
21627;DHT22;10975;47.872;12.972;2024-03-17T05:04:18;8.30;99.90
21627;DHT22;10975;47.872;12.972;2024-03-17T05:06:44;8.30;99.90
21627;DHT22;10975;47.872;12.972;2024-03-17T05:09:16;8.30;99.90
21627;DHT22;10975;47.872;12.972;2024-03-17T05:11:42;8.30;99.90
21627;DHT22;10975;47.872;12.972;2024-03-17T05:14:08;8.30;99.90
21627;DHT22;10975;47.872;12.972;2024-03-17T05:16:34;8.30;99.90
21627;DHT22;10975;47.872;12.972;2024-03-17T05:19:00;8.20;99.90
21627;DHT22;10975;47.872;12.972;2024-03-17T05:21:26;8.20;99.90
21627;DHT22;10975;47.872;12.972;2024-03-17T05:23:56;8.20;99.90
21627;DHT22;10975;47.872;12.972;2024-03-17T05:26:22;8.10;99.90
21627;DHT22;10975;47.872;12.972;2024-03-17T05:28:48;8.20;99.90
21627;DHT22;10975;47.872;12.972;2024-03-17T05:31:14;8.30;99.90
21627;DHT22;10975;47.872;12.972;2024-03-17T05:33:46;8.30;99.90
21627;DHT22;10975;47.872;12.972;2024-03-17T05:36:12;8.30;99.90
21627;DHT22;10975;47.872;12.972;2024-03-17T05:38:38;8.30;99.90
21627;DHT22;10975;47.872;12.972;2024-03-17T05:41:08;8.30;99.90
21627;DHT22;10975;47.872;12.972;2024-03-17T05:43:38;8.30;99.90
21627;DHT22;10975;47.872;12.972;2024-03-17T05:46:11;8.30;99.90
21627;DHT22;10975;47.872;12.972;2024-03-17T05:48:39;8.30;99.90
21627;DHT22;10975;47.872;12.972;2024-03-17T05:51:10;8.40;99.90
21627;DHT22;10975;47.872;12.972;2024-03-17T05:53:37;8.40;99.90
21627;DHT22;10975;47.872;12.972;2024-03-17T05:56:06;8.40;99.90
21627;DHT22;10975;47.872;12.972;2024-03-17T05:58:35;8.40;99.90
21627;DHT22;10975;47.872;12.972;2024-03-17T06:01:04;8.30;99.90
21627;DHT22;10975;47.872;12.972;2024-03-17T06:03:31;8.30;99.90
21627;DHT22;10975;47.872;12.972;2024-03-17T06:05:58;8.40;99.90
21627;DHT22;10975;47.872;12.972;2024-03-17T06:08:25;8.40;99.90
21627;DHT22;10975;47.872;12.972;2024-03-17T06:10:51;8.40;99.90
21627;DHT22;10975;47.872;12.972;2024-03-17T06:13:17;8.50;99.90
21627;DHT22;10975;47.872;12.972;2024-03-17T06:15:44;8.60;99.90
21627;DHT22;10975;47.872;12.972;2024-03-17T06:18:12;8.60;99.90
21627;DHT22;10975;47.872;12.972;2024-03-17T06:20:44;8.70;99.90
21627;DHT22;10975;47.872;12.972;2024-03-17T06:23:11;8.70;99.90
21627;DHT22;10975;47.872;12.972;2024-03-17T06:25:48;8.80;99.90
21627;DHT22;10975;47.872;12.972;2024-03-17T06:28:17;8.80;99.90
21627;DHT22;10975;47.872;12.972;2024-03-17T06:30:54;8.90;99.90
21627;DHT22;10975;47.872;12.972;2024-03-17T06:33:20;8.90;99.90
21627;DHT22;10975;47.872;12.972;2024-03-17T06:35:47;8.90;99.90
21627;DHT22;10975;47.872;12.972;2024-03-17T06:38:13;9.00;99.90
21627;DHT22;10975;47.872;12.972;2024-03-17T06:40:41;9.00;99.90
21627;DHT22;10975;47.872;12.972;2024-03-17T06:43:07;9.10;99.90
21627;DHT22;10975;47.872;12.972;2024-03-17T06:45:33;9.10;99.90
21627;DHT22;10975;47.872;12.972;2024-03-17T06:47:59;9.20;99.90
21627;DHT22;10975;47.872;12.972;2024-03-17T06:50:25;9.20;99.90
21627;DHT22;10975;47.872;12.972;2024-03-17T06:52:52;9.20;99.90
21627;DHT22;10975;47.872;12.972;2024-03-17T06:55:18;9.20;99.90
21627;DHT22;10975;47.872;12.972;2024-03-17T06:57:44;9.30;99.90
21627;DHT22;10975;47.872;12.972;2024-03-17T07:00:13;9.30;99.90
21627;DHT22;10975;47.872;12.972;2024-03-17T07:02:40;9.40;99.90
21627;DHT22;10975;47.872;12.972;2024-03-17T07:05:12;9.40;99.90
21627;DHT22;10975;47.872;12.972;2024-03-17T07:07:43;9.50;99.90
21627;DHT22;10975;47.872;12.972;2024-03-17T07:10:10;9.50;99.90
21627;DHT22;10975;47.872;12.972;2024-03-17T07:12:37;9.50;99.90
21627;DHT22;10975;47.872;12.972;2024-03-17T07:15:04;9.50;99.90
21627;DHT22;10975;47.872;12.972;2024-03-17T07:17:30;9.40;99.90
21627;DHT22;10975;47.872;12.972;2024-03-17T07:19:56;9.40;99.90
21627;DHT22;10975;47.872;12.972;2024-03-17T07:22:22;9.40;99.90
21627;DHT22;10975;47.872;12.972;2024-03-17T07:24:48;9.50;99.90
21627;DHT22;10975;47.872;12.972;2024-03-17T07:27:17;9.60;99.90
21627;DHT22;10975;47.872;12.972;2024-03-17T07:29:43;9.70;99.90
21627;DHT22;10975;47.872;12.972;2024-03-17T07:32:09;9.80;99.90
21627;DHT22;10975;47.872;12.972;2024-03-17T07:34:35;9.80;99.90
21627;DHT22;10975;47.872;12.972;2024-03-17T07:37:01;9.80;99.90
21627;DHT22;10975;47.872;12.972;2024-03-17T07:39:32;9.80;99.90
21627;DHT22;10975;47.872;12.972;2024-03-17T07:41:58;10.00;99.90
21627;DHT22;10975;47.872;12.972;2024-03-17T07:44:25;10.20;99.90
21627;DHT22;10975;47.872;12.972;2024-03-17T07:46:56;10.20;99.90
21627;DHT22;10975;47.872;12.972;2024-03-17T07:49:22;10.30;99.90
21627;DHT22;10975;47.872;12.972;2024-03-17T07:51:48;10.30;99.90
21627;DHT22;10975;47.872;12.972;2024-03-17T07:54:14;10.30;99.90
21627;DHT22;10975;47.872;12.972;2024-03-17T07:56:40;10.20;99.90
21627;DHT22;10975;47.872;12.972;2024-03-17T07:59:05;10.20;99.90
21627;DHT22;10975;47.872;12.972;2024-03-17T08:01:38;10.20;99.90
21627;DHT22;10975;47.872;12.972;2024-03-17T08:04:04;10.10;99.90
21627;DHT22;10975;47.872;12.972;2024-03-17T08:06:30;10.20;99.90
21627;DHT22;10975;47.872;12.972;2024-03-17T08:08:56;10.20;99.90
21627;DHT22;10975;47.872;12.972;2024-03-17T08:11:23;10.20;99.90
21627;DHT22;10975;47.872;12.972;2024-03-17T08:13:50;10.20;99.90
21627;DHT22;10975;47.872;12.972;2024-03-17T08:16:15;10.30;99.90
21627;DHT22;10975;47.872;12.972;2024-03-17T08:18:42;10.10;99.90
21627;DHT22;10975;47.872;12.972;2024-03-17T08:21:08;10.10;99.90
21627;DHT22;10975;47.872;12.972;2024-03-17T08:23:35;10.10;99.90
21627;DHT22;10975;47.872;12.972;2024-03-17T08:26:13;10.10;99.90
21627;DHT22;10975;47.872;12.972;2024-03-17T08:28:39;10.00;99.90
21627;DHT22;10975;47.872;12.972;2024-03-17T08:31:05;10.00;99.90
21627;DHT22;10975;47.872;12.972;2024-03-17T08:33:31;10.00;99.90
21627;DHT22;10975;47.872;12.972;2024-03-17T08:36:03;10.10;99.90
21627;DHT22;10975;47.872;12.972;2024-03-17T08:38:31;10.10;99.90
21627;DHT22;10975;47.872;12.972;2024-03-17T08:41:01;10.30;99.90
21627;DHT22;10975;47.872;12.972;2024-03-17T08:43:27;10.50;99.90
21627;DHT22;10975;47.872;12.972;2024-03-17T08:45:55;10.50;99.90
21627;DHT22;10975;47.872;12.972;2024-03-17T08:48:24;10.60;99.90
21627;DHT22;10975;47.872;12.972;2024-03-17T08:50:51;10.70;99.90
21627;DHT22;10975;47.872;12.972;2024-03-17T08:53:17;10.70;99.90
21627;DHT22;10975;47.872;12.972;2024-03-17T08:55:42;10.80;99.90
21627;DHT22;10975;47.872;12.972;2024-03-17T08:58:10;10.70;99.90
21627;DHT22;10975;47.872;12.972;2024-03-17T09:00:36;10.80;99.90
21627;DHT22;10975;47.872;12.972;2024-03-17T09:03:03;10.90;99.90
21627;DHT22;10975;47.872;12.972;2024-03-17T09:05:29;10.90;99.90
21627;DHT22;10975;47.872;12.972;2024-03-17T09:07:55;10.90;99.90
21627;DHT22;10975;47.872;12.972;2024-03-17T09:10:21;11.00;99.90
21627;DHT22;10975;47.872;12.972;2024-03-17T09:12:47;11.10;99.90
21627;DHT22;10975;47.872;12.972;2024-03-17T09:15:13;11.20;99.90
21627;DHT22;10975;47.872;12.972;2024-03-17T09:17:40;11.30;99.90
21627;DHT22;10975;47.872;12.972;2024-03-17T09:20:07;11.40;99.90
21627;DHT22;10975;47.872;12.972;2024-03-17T09:22:38;11.50;99.90
21627;DHT22;10975;47.872;12.972;2024-03-17T09:25:10;11.50;99.90
21627;DHT22;10975;47.872;12.972;2024-03-17T09:27:37;11.40;99.90
21627;DHT22;10975;47.872;12.972;2024-03-17T09:30:04;11.40;99.90
21627;DHT22;10975;47.872;12.972;2024-03-17T09:32:37;11.50;99.90
21627;DHT22;10975;47.872;12.972;2024-03-17T09:35:04;11.60;99.90
21627;DHT22;10975;47.872;12.972;2024-03-17T09:37:30;11.60;99.90
21627;DHT22;10975;47.872;12.972;2024-03-17T09:39:57;11.60;99.90
21627;DHT22;10975;47.872;12.972;2024-03-17T09:42:26;11.50;99.90
21627;DHT22;10975;47.872;12.972;2024-03-17T09:44:53;11.50;99.90
21627;DHT22;10975;47.872;12.972;2024-03-17T09:47:23;11.50;99.90
21627;DHT22;10975;47.872;12.972;2024-03-17T09:49:50;11.50;99.90
21627;DHT22;10975;47.872;12.972;2024-03-17T09:52:24;11.60;99.90
21627;DHT22;10975;47.872;12.972;2024-03-17T09:55:01;11.70;99.90
21627;DHT22;10975;47.872;12.972;2024-03-17T09:57:28;11.80;99.90
21627;DHT22;10975;47.872;12.972;2024-03-17T09:59:56;11.90;99.90
21627;DHT22;10975;47.872;12.972;2024-03-17T10:02:22;12.00;99.90
21627;DHT22;10975;47.872;12.972;2024-03-17T10:04:49;12.00;99.90
21627;DHT22;10975;47.872;12.972;2024-03-17T10:07:14;12.00;99.90
21627;DHT22;10975;47.872;12.972;2024-03-17T10:09:42;12.00;99.90
21627;DHT22;10975;47.872;12.972;2024-03-17T10:12:26;12.10;99.90
21627;DHT22;10975;47.872;12.972;2024-03-17T10:14:59;12.20;99.90
21627;DHT22;10975;47.872;12.972;2024-03-17T10:17:32;12.20;99.90
21627;DHT22;10975;47.872;12.972;2024-03-17T10:20:18;12.20;99.90
21627;DHT22;10975;47.872;12.972;2024-03-17T10:23:03;12.20;99.90
21627;DHT22;10975;47.872;12.972;2024-03-17T10:25:31;12.20;99.90
21627;DHT22;10975;47.872;12.972;2024-03-17T10:27:58;12.00;99.90
21627;DHT22;10975;47.872;12.972;2024-03-17T10:30:24;12.10;99.90
21627;DHT22;10975;47.872;12.972;2024-03-17T10:32:53;12.20;99.90
21627;DHT22;10975;47.872;12.972;2024-03-17T10:35:32;12.30;99.90
21627;DHT22;10975;47.872;12.972;2024-03-17T10:38:02;12.40;99.90
21627;DHT22;10975;47.872;12.972;2024-03-17T10:40:30;12.40;99.90
21627;DHT22;10975;47.872;12.972;2024-03-17T10:42:57;12.40;99.90
21627;DHT22;10975;47.872;12.972;2024-03-17T10:45:23;12.40;99.90
21627;DHT22;10975;47.872;12.972;2024-03-17T10:47:51;12.40;99.90
21627;DHT22;10975;47.872;12.972;2024-03-17T10:50:22;12.30;99.90
21627;DHT22;10975;47.872;12.972;2024-03-17T10:52:50;12.30;99.90
21627;DHT22;10975;47.872;12.972;2024-03-17T10:55:43;12.40;99.90
21627;DHT22;10975;47.872;12.972;2024-03-17T10:58:28;12.50;99.90
21627;DHT22;10975;47.872;12.972;2024-03-17T11:00:57;12.60;99.90
21627;DHT22;10975;47.872;12.972;2024-03-17T11:03:24;12.60;99.90
21627;DHT22;10975;47.872;12.972;2024-03-17T11:05:54;12.70;99.90
21627;DHT22;10975;47.872;12.972;2024-03-17T11:08:20;12.70;99.90
21627;DHT22;10975;47.872;12.972;2024-03-17T11:10:51;12.70;99.90
21627;DHT22;10975;47.872;12.972;2024-03-17T11:13:28;12.70;99.90
21627;DHT22;10975;47.872;12.972;2024-03-17T11:15:56;12.60;99.90
21627;DHT22;10975;47.872;12.972;2024-03-17T11:21:03;12.70;99.90
21627;DHT22;10975;47.872;12.972;2024-03-17T11:23:41;12.80;99.90
21627;DHT22;10975;47.872;12.972;2024-03-17T11:26:08;12.90;99.90
21627;DHT22;10975;47.872;12.972;2024-03-17T11:31:44;13.10;99.90
21627;DHT22;10975;47.872;12.972;2024-03-17T11:34:31;13.10;99.90
21627;DHT22;10975;47.872;12.972;2024-03-17T11:36:58;13.20;99.90
21627;DHT22;10975;47.872;12.972;2024-03-17T11:39:47;13.30;99.90
21627;DHT22;10975;47.872;12.972;2024-03-17T11:42:15;13.30;99.90
21627;DHT22;10975;47.872;12.972;2024-03-17T11:45:03;13.40;99.90
21627;DHT22;10975;47.872;12.972;2024-03-17T11:47:38;13.60;99.90
21627;DHT22;10975;47.872;12.972;2024-03-17T11:50:06;13.70;99.90
21627;DHT22;10975;47.872;12.972;2024-03-17T11:52:34;13.80;99.90
21627;DHT22;10975;47.872;12.972;2024-03-17T11:54:59;13.80;99.90
21627;DHT22;10975;47.872;12.972;2024-03-17T11:57:26;13.70;99.90
21627;DHT22;10975;47.872;12.972;2024-03-17T11:59:54;13.60;99.90
21627;DHT22;10975;47.872;12.972;2024-03-17T12:04:56;13.70;99.90
21627;DHT22;10975;47.872;12.972;2024-03-17T12:07:23;13.70;99.90
21627;DHT22;10975;47.872;12.972;2024-03-17T12:09:50;13.90;99.90
21627;DHT22;10975;47.872;12.972;2024-03-17T12:12:22;14.00;99.90
21627;DHT22;10975;47.872;12.972;2024-03-17T12:14:49;14.20;99.90
21627;DHT22;10975;47.872;12.972;2024-03-17T12:17:21;14.00;99.90
21627;DHT22;10975;47.872;12.972;2024-03-17T12:19:47;14.10;99.90
21627;DHT22;10975;47.872;12.972;2024-03-17T12:22:21;14.20;99.90
21627;DHT22;10975;47.872;12.972;2024-03-17T12:24:51;14.30;99.90
21627;DHT22;10975;47.872;12.972;2024-03-17T12:27:23;14.30;99.90
21627;DHT22;10975;47.872;12.972;2024-03-17T12:29:51;14.20;99.90
21627;DHT22;10975;47.872;12.972;2024-03-17T12:32:24;14.20;99.90
21627;DHT22;10975;47.872;12.972;2024-03-17T12:34:51;14.20;99.90
21627;DHT22;10975;47.872;12.972;2024-03-17T12:37:22;14.10;99.90
21627;DHT22;10975;47.872;12.972;2024-03-17T12:39:49;14.20;99.90
21627;DHT22;10975;47.872;12.972;2024-03-17T12:42:16;14.20;99.90
21627;DHT22;10975;47.872;12.972;2024-03-17T12:44:50;14.30;99.90
21627;DHT22;10975;47.872;12.972;2024-03-17T12:47:21;14.40;99.90
21627;DHT22;10975;47.872;12.972;2024-03-17T12:49:55;14.40;99.90
21627;DHT22;10975;47.872;12.972;2024-03-17T12:52:24;14.50;99.90
21627;DHT22;10975;47.872;12.972;2024-03-17T12:57:50;14.70;99.90
21627;DHT22;10975;47.872;12.972;2024-03-17T13:00:35;14.70;99.90
21627;DHT22;10975;47.872;12.972;2024-03-17T13:03:03;14.80;99.90
21627;DHT22;10975;47.872;12.972;2024-03-17T13:05:30;14.60;99.90
21627;DHT22;10975;47.872;12.972;2024-03-17T13:07:57;14.60;99.90
21627;DHT22;10975;47.872;12.972;2024-03-17T13:10:25;14.50;99.90
21627;DHT22;10975;47.872;12.972;2024-03-17T13:13:08;14.60;99.90
21627;DHT22;10975;47.872;12.972;2024-03-17T13:15:35;14.80;99.90
21627;DHT22;10975;47.872;12.972;2024-03-17T13:18:05;14.80;99.90
21627;DHT22;10975;47.872;12.972;2024-03-17T13:20:31;14.90;99.90
21627;DHT22;10975;47.872;12.972;2024-03-17T13:22:58;14.80;99.90
21627;DHT22;10975;47.872;12.972;2024-03-17T13:25:27;14.90;99.90
21627;DHT22;10975;47.872;12.972;2024-03-17T13:27:55;14.90;99.90
21627;DHT22;10975;47.872;12.972;2024-03-17T13:30:23;15.00;99.90
21627;DHT22;10975;47.872;12.972;2024-03-17T13:32:50;14.90;99.90
21627;DHT22;10975;47.872;12.972;2024-03-17T13:35:22;14.90;99.90
21627;DHT22;10975;47.872;12.972;2024-03-17T13:37:50;14.90;99.90
21627;DHT22;10975;47.872;12.972;2024-03-17T13:40:18;15.00;99.90
21627;DHT22;10975;47.872;12.972;2024-03-17T13:42:46;15.00;99.90
21627;DHT22;10975;47.872;12.972;2024-03-17T13:45:13;14.90;99.90
21627;DHT22;10975;47.872;12.972;2024-03-17T13:47:40;14.90;99.90
21627;DHT22;10975;47.872;12.972;2024-03-17T13:50:07;14.80;99.90
21627;DHT22;10975;47.872;12.972;2024-03-17T13:52:42;14.80;99.90
21627;DHT22;10975;47.872;12.972;2024-03-17T13:55:15;14.80;99.90
21627;DHT22;10975;47.872;12.972;2024-03-17T13:57:47;14.80;99.90
21627;DHT22;10975;47.872;12.972;2024-03-17T14:00:13;15.00;99.90
21627;DHT22;10975;47.872;12.972;2024-03-17T14:02:44;14.90;99.90
21627;DHT22;10975;47.872;12.972;2024-03-17T14:05:13;14.80;99.90
21627;DHT22;10975;47.872;12.972;2024-03-17T14:07:39;14.80;99.90
21627;DHT22;10975;47.872;12.972;2024-03-17T14:10:06;14.80;99.90
21627;DHT22;10975;47.872;12.972;2024-03-17T14:12:34;14.70;99.90
21627;DHT22;10975;47.872;12.972;2024-03-17T14:15:01;14.80;99.90
21627;DHT22;10975;47.872;12.972;2024-03-17T14:17:28;14.80;99.90
21627;DHT22;10975;47.872;12.972;2024-03-17T14:19:54;14.90;99.90
21627;DHT22;10975;47.872;12.972;2024-03-17T14:22:20;14.80;99.90
21627;DHT22;10975;47.872;12.972;2024-03-17T14:24:46;14.90;99.90
21627;DHT22;10975;47.872;12.972;2024-03-17T14:27:13;14.90;99.90
21627;DHT22;10975;47.872;12.972;2024-03-17T14:29:39;14.90;99.90
21627;DHT22;10975;47.872;12.972;2024-03-17T14:32:05;15.00;99.90
21627;DHT22;10975;47.872;12.972;2024-03-17T14:34:31;14.90;99.90
21627;DHT22;10975;47.872;12.972;2024-03-17T14:37:01;14.90;99.90
21627;DHT22;10975;47.872;12.972;2024-03-17T14:39:28;14.90;99.90
21627;DHT22;10975;47.872;12.972;2024-03-17T14:41:57;14.90;99.90
21627;DHT22;10975;47.872;12.972;2024-03-17T14:44:23;14.90;99.90
21627;DHT22;10975;47.872;12.972;2024-03-17T14:46:50;14.90;99.90
21627;DHT22;10975;47.872;12.972;2024-03-17T14:49:20;14.80;99.90
21627;DHT22;10975;47.872;12.972;2024-03-17T14:51:46;14.70;99.90
21627;DHT22;10975;47.872;12.972;2024-03-17T14:54:13;14.60;99.90
21627;DHT22;10975;47.872;12.972;2024-03-17T14:56:39;14.60;99.90
21627;DHT22;10975;47.872;12.972;2024-03-17T14:59:06;14.60;99.90
21627;DHT22;10975;47.872;12.972;2024-03-17T15:01:32;14.60;99.90
21627;DHT22;10975;47.872;12.972;2024-03-17T15:03:58;14.60;99.90
21627;DHT22;10975;47.872;12.972;2024-03-17T15:06:23;14.60;99.90
21627;DHT22;10975;47.872;12.972;2024-03-17T15:08:50;14.50;99.90
21627;DHT22;10975;47.872;12.972;2024-03-17T15:11:17;14.50;99.90
21627;DHT22;10975;47.872;12.972;2024-03-17T15:13:43;14.50;99.90
21627;DHT22;10975;47.872;12.972;2024-03-17T15:16:09;14.60;99.90
21627;DHT22;10975;47.872;12.972;2024-03-17T15:18:35;14.60;99.90
21627;DHT22;10975;47.872;12.972;2024-03-17T15:21:02;14.50;99.90
21627;DHT22;10975;47.872;12.972;2024-03-17T15:23:31;14.50;99.90
21627;DHT22;10975;47.872;12.972;2024-03-17T15:26:02;14.40;99.90
21627;DHT22;10975;47.872;12.972;2024-03-17T15:28:40;14.50;99.90
21627;DHT22;10975;47.872;12.972;2024-03-17T15:31:07;14.50;99.90
21627;DHT22;10975;47.872;12.972;2024-03-17T15:33:34;14.50;99.90
21627;DHT22;10975;47.872;12.972;2024-03-17T15:36:04;14.40;99.90
21627;DHT22;10975;47.872;12.972;2024-03-17T15:38:35;14.40;99.90